sensor_id;sensor_type;location;lat;lon;timestamp;P1;durP1;ratioP1;P2;durP2;ratioP2
70450;SDS011;58869;51.982;4.450;2022-09-09T00:00:41;6.45;;;6.45;;
70450;SDS011;58869;51.982;4.450;2022-09-09T00:03:31;6.21;;;6.21;;
70450;SDS011;58869;51.982;4.450;2022-09-09T00:06:09;6.33;;;6.33;;
70450;SDS011;58869;51.982;4.450;2022-09-09T00:08:52;6.48;;;6.48;;
70450;SDS011;58869;51.982;4.450;2022-09-09T00:11:38;6.29;;;6.29;;
70450;SDS011;58869;51.982;4.450;2022-09-09T00:14:12;6.68;;;6.68;;
70450;SDS011;58869;51.982;4.450;2022-09-09T00:16:45;6.81;;;6.81;;
70450;SDS011;58869;51.982;4.450;2022-09-09T00:19:22;7.20;;;7.20;;
70450;SDS011;58869;51.982;4.450;2022-09-09T00:24:27;7.26;;;7.26;;
70450;SDS011;58869;51.982;4.450;2022-09-09T00:29:59;7.67;;;7.67;;
70450;SDS011;58869;51.982;4.450;2022-09-09T00:32:45;8.08;;;8.08;;
70450;SDS011;58869;51.982;4.450;2022-09-09T00:35:21;8.08;;;8.08;;
70450;SDS011;58869;51.982;4.450;2022-09-09T00:37:52;8.53;;;8.53;;
70450;SDS011;58869;51.982;4.450;2022-09-09T00:40:35;8.80;;;8.80;;
70450;SDS011;58869;51.982;4.450;2022-09-09T00:43:24;8.97;;;8.97;;
70450;SDS011;58869;51.982;4.450;2022-09-09T00:51:59;8.64;;;8.64;;
70450;SDS011;58869;51.982;4.450;2022-09-09T00:57:13;8.23;;;8.23;;
70450;SDS011;58869;51.982;4.450;2022-09-09T00:59:46;8.33;;;8.33;;
70450;SDS011;58869;51.982;4.450;2022-09-09T01:02:30;8.08;;;8.08;;
70450;SDS011;58869;51.982;4.450;2022-09-09T01:05:07;7.80;;;7.80;;
70450;SDS011;58869;51.982;4.450;2022-09-09T01:07:42;7.73;;;7.73;;
70450;SDS011;58869;51.982;4.450;2022-09-09T01:10:21;7.07;;;7.07;;
70450;SDS011;58869;51.982;4.450;2022-09-09T01:13:02;6.89;;;6.89;;
70450;SDS011;58869;51.982;4.450;2022-09-09T01:15:59;6.00;;;6.00;;
70450;SDS011;58869;51.982;4.450;2022-09-09T01:18:29;5.55;;;5.55;;
70450;SDS011;58869;51.982;4.450;2022-09-09T01:24:27;4.80;;;4.80;;
70450;SDS011;58869;51.982;4.450;2022-09-09T01:26:59;4.47;;;4.47;;
70450;SDS011;58869;51.982;4.450;2022-09-09T01:29:27;3.96;;;3.96;;
70450;SDS011;58869;51.982;4.450;2022-09-09T01:31:55;3.53;;;3.53;;
70450;SDS011;58869;51.982;4.450;2022-09-09T01:34:23;3.39;;;3.39;;
70450;SDS011;58869;51.982;4.450;2022-09-09T01:39:20;2.97;;;2.97;;
70450;SDS011;58869;51.982;4.450;2022-09-09T01:41:46;2.58;;;2.58;;
70450;SDS011;58869;51.982;4.450;2022-09-09T01:44:11;2.61;;;2.61;;
70450;SDS011;58869;51.982;4.450;2022-09-09T01:46:38;2.56;;;2.56;;
70450;SDS011;58869;51.982;4.450;2022-09-09T01:49:05;2.59;;;2.58;;
70450;SDS011;58869;51.982;4.450;2022-09-09T01:51:32;2.83;;;2.82;;
70450;SDS011;58869;51.982;4.450;2022-09-09T01:53:59;2.83;;;2.83;;
70450;SDS011;58869;51.982;4.450;2022-09-09T01:56:32;3.05;;;3.05;;
70450;SDS011;58869;51.982;4.450;2022-09-09T02:02:08;3.91;;;3.91;;
70450;SDS011;58869;51.982;4.450;2022-09-09T02:04:41;3.85;;;3.84;;
70450;SDS011;58869;51.982;4.450;2022-09-09T02:07:25;3.97;;;3.95;;
70450;SDS011;58869;51.982;4.450;2022-09-09T02:10:05;3.80;;;3.80;;
70450;SDS011;58869;51.982;4.450;2022-09-09T02:12:43;3.46;;;3.46;;
70450;SDS011;58869;51.982;4.450;2022-09-09T02:15:23;3.26;;;3.26;;
70450;SDS011;58869;51.982;4.450;2022-09-09T02:17:55;2.83;;;2.83;;
70450;SDS011;58869;51.982;4.450;2022-09-09T02:20:25;3.01;;;3.01;;
70450;SDS011;58869;51.982;4.450;2022-09-09T02:22:52;2.85;;;2.85;;
70450;SDS011;58869;51.982;4.450;2022-09-09T02:25:20;2.66;;;2.66;;
70450;SDS011;58869;51.982;4.450;2022-09-09T02:27:49;2.61;;;2.61;;
70450;SDS011;58869;51.982;4.450;2022-09-09T02:30:16;2.58;;;2.58;;
70450;SDS011;58869;51.982;4.450;2022-09-09T02:32:43;2.72;;;2.72;;
70450;SDS011;58869;51.982;4.450;2022-09-09T02:35:13;2.71;;;2.71;;
70450;SDS011;58869;51.982;4.450;2022-09-09T02:37:41;3.17;;;3.16;;
70450;SDS011;58869;51.982;4.450;2022-09-09T02:40:09;3.06;;;3.05;;
70450;SDS011;58869;51.982;4.450;2022-09-09T02:42:41;3.19;;;3.19;;
70450;SDS011;58869;51.982;4.450;2022-09-09T02:45:09;3.27;;;3.27;;
70450;SDS011;58869;51.982;4.450;2022-09-09T02:47:48;3.32;;;3.32;;
70450;SDS011;58869;51.982;4.450;2022-09-09T02:50:25;3.64;;;3.64;;
70450;SDS011;58869;51.982;4.450;2022-09-09T02:55:38;4.38;;;4.37;;
70450;SDS011;58869;51.982;4.450;2022-09-09T02:58:12;4.34;;;4.31;;
70450;SDS011;58869;51.982;4.450;2022-09-09T03:00:45;4.54;;;4.47;;
70450;SDS011;58869;51.982;4.450;2022-09-09T03:03:12;4.95;;;4.87;;
70450;SDS011;58869;51.982;4.450;2022-09-09T03:05:38;4.38;;;4.34;;
70450;SDS011;58869;51.982;4.450;2022-09-09T03:08:03;4.23;;;4.23;;
70450;SDS011;58869;51.982;4.450;2022-09-09T03:10:31;4.21;;;4.21;;
70450;SDS011;58869;51.982;4.450;2022-09-09T03:12:57;4.01;;;4.01;;
70450;SDS011;58869;51.982;4.450;2022-09-09T03:15:23;3.89;;;3.89;;
70450;SDS011;58869;51.982;4.450;2022-09-09T03:17:48;3.89;;;3.89;;
70450;SDS011;58869;51.982;4.450;2022-09-09T03:20:14;3.63;;;3.63;;
70450;SDS011;58869;51.982;4.450;2022-09-09T03:22:40;3.40;;;3.40;;
70450;SDS011;58869;51.982;4.450;2022-09-09T03:25:05;3.44;;;3.44;;
70450;SDS011;58869;51.982;4.450;2022-09-09T03:27:31;3.24;;;3.24;;
70450;SDS011;58869;51.982;4.450;2022-09-09T03:29:57;3.02;;;3.02;;
70450;SDS011;58869;51.982;4.450;2022-09-09T03:32:23;3.24;;;3.24;;
70450;SDS011;58869;51.982;4.450;2022-09-09T03:34:51;3.08;;;3.07;;
70450;SDS011;58869;51.982;4.450;2022-09-09T03:37:17;2.80;;;2.80;;
70450;SDS011;58869;51.982;4.450;2022-09-09T03:39:43;2.64;;;2.64;;
70450;SDS011;58869;51.982;4.450;2022-09-09T03:42:09;2.68;;;2.59;;
70450;SDS011;58869;51.982;4.450;2022-09-09T03:44:35;2.60;;;2.48;;
70450;SDS011;58869;51.982;4.450;2022-09-09T03:47:00;2.70;;;2.63;;
70450;SDS011;58869;51.982;4.450;2022-09-09T03:49:26;2.63;;;2.62;;
70450;SDS011;58869;51.982;4.450;2022-09-09T03:51:54;2.62;;;2.62;;
70450;SDS011;58869;51.982;4.450;2022-09-09T03:54:23;2.72;;;2.60;;
70450;SDS011;58869;51.982;4.450;2022-09-09T03:56:50;2.57;;;2.37;;
70450;SDS011;58869;51.982;4.450;2022-09-09T03:59:15;2.95;;;2.69;;
70450;SDS011;58869;51.982;4.450;2022-09-09T04:01:41;2.91;;;2.67;;
70450;SDS011;58869;51.982;4.450;2022-09-09T04:04:06;3.04;;;2.86;;
70450;SDS011;58869;51.982;4.450;2022-09-09T04:06:32;3.11;;;2.90;;
70450;SDS011;58869;51.982;4.450;2022-09-09T04:08:58;3.02;;;2.84;;
70450;SDS011;58869;51.982;4.450;2022-09-09T04:11:23;3.17;;;3.08;;
70450;SDS011;58869;51.982;4.450;2022-09-09T04:13:49;3.00;;;2.99;;
70450;SDS011;58869;51.982;4.450;2022-09-09T04:16:14;3.36;;;3.24;;
70450;SDS011;58869;51.982;4.450;2022-09-09T04:18:40;3.65;;;3.54;;
70450;SDS011;58869;51.982;4.450;2022-09-09T04:21:06;3.99;;;3.86;;
70450;SDS011;58869;51.982;4.450;2022-09-09T04:23:33;4.13;;;3.97;;
70450;SDS011;58869;51.982;4.450;2022-09-09T04:26:00;4.38;;;4.28;;
70450;SDS011;58869;51.982;4.450;2022-09-09T04:28:27;4.10;;;4.00;;
70450;SDS011;58869;51.982;4.450;2022-09-09T04:30:54;4.48;;;4.34;;
70450;SDS011;58869;51.982;4.450;2022-09-09T04:33:22;4.37;;;4.24;;
70450;SDS011;58869;51.982;4.450;2022-09-09T04:35:50;4.38;;;4.24;;
70450;SDS011;58869;51.982;4.450;2022-09-09T04:38:16;4.19;;;4.08;;
70450;SDS011;58869;51.982;4.450;2022-09-09T04:40:43;4.45;;;4.33;;
70450;SDS011;58869;51.982;4.450;2022-09-09T04:43:12;3.91;;;3.81;;
70450;SDS011;58869;51.982;4.450;2022-09-09T04:45:39;3.60;;;3.50;;
70450;SDS011;58869;51.982;4.450;2022-09-09T04:48:05;3.56;;;3.47;;
70450;SDS011;58869;51.982;4.450;2022-09-09T04:50:31;3.49;;;3.40;;
70450;SDS011;58869;51.982;4.450;2022-09-09T04:52:59;3.28;;;3.19;;
70450;SDS011;58869;51.982;4.450;2022-09-09T04:55:27;3.47;;;3.44;;
70450;SDS011;58869;51.982;4.450;2022-09-09T04:57:53;3.49;;;3.43;;
70450;SDS011;58869;51.982;4.450;2022-09-09T05:00:19;4.19;;;4.08;;
70450;SDS011;58869;51.982;4.450;2022-09-09T05:02:44;4.04;;;3.95;;
70450;SDS011;58869;51.982;4.450;2022-09-09T05:05:10;4.09;;;4.09;;
70450;SDS011;58869;51.982;4.450;2022-09-09T05:07:37;4.03;;;4.01;;
70450;SDS011;58869;51.982;4.450;2022-09-09T05:10:02;4.16;;;4.15;;
70450;SDS011;58869;51.982;4.450;2022-09-09T05:12:29;4.37;;;4.31;;
70450;SDS011;58869;51.982;4.450;2022-09-09T05:14:55;4.11;;;4.07;;
70450;SDS011;58869;51.982;4.450;2022-09-09T05:17:20;4.14;;;4.05;;
70450;SDS011;58869;51.982;4.450;2022-09-09T05:19:46;4.48;;;4.37;;
70450;SDS011;58869;51.982;4.450;2022-09-09T05:22:11;4.18;;;4.05;;
70450;SDS011;58869;51.982;4.450;2022-09-09T05:24:37;4.08;;;3.96;;
70450;SDS011;58869;51.982;4.450;2022-09-09T05:27:03;4.03;;;3.98;;
70450;SDS011;58869;51.982;4.450;2022-09-09T05:29:29;3.94;;;3.88;;
70450;SDS011;58869;51.982;4.450;2022-09-09T05:31:54;4.00;;;3.90;;
70450;SDS011;58869;51.982;4.450;2022-09-09T05:34:20;3.90;;;3.81;;
70450;SDS011;58869;51.982;4.450;2022-09-09T05:36:46;3.73;;;3.70;;
70450;SDS011;58869;51.982;4.450;2022-09-09T05:39:12;3.75;;;3.71;;
70450;SDS011;58869;51.982;4.450;2022-09-09T05:41:38;4.09;;;4.02;;
70450;SDS011;58869;51.982;4.450;2022-09-09T05:44:03;3.99;;;3.94;;
70450;SDS011;58869;51.982;4.450;2022-09-09T05:46:29;3.59;;;3.58;;
70450;SDS011;58869;51.982;4.450;2022-09-09T05:48:55;3.95;;;3.84;;
70450;SDS011;58869;51.982;4.450;2022-09-09T05:51:22;3.94;;;3.70;;
70450;SDS011;58869;51.982;4.450;2022-09-09T05:53:53;4.17;;;3.93;;
70450;SDS011;58869;51.982;4.450;2022-09-09T05:56:23;3.92;;;3.62;;
70450;SDS011;58869;51.982;4.450;2022-09-09T05:58:51;4.13;;;3.84;;
70450;SDS011;58869;51.982;4.450;2022-09-09T06:01:20;4.06;;;3.76;;
70450;SDS011;58869;51.982;4.450;2022-09-09T06:03:46;3.82;;;3.59;;
70450;SDS011;58869;51.982;4.450;2022-09-09T06:06:15;3.79;;;3.64;;
70450;SDS011;58869;51.982;4.450;2022-09-09T06:08:43;3.68;;;3.45;;
70450;SDS011;58869;51.982;4.450;2022-09-09T06:11:11;3.66;;;3.41;;
70450;SDS011;58869;51.982;4.450;2022-09-09T06:13:43;4.09;;;3.80;;
70450;SDS011;58869;51.982;4.450;2022-09-09T06:16:10;4.19;;;3.88;;
70450;SDS011;58869;51.982;4.450;2022-09-09T06:18:37;4.06;;;3.75;;
70450;SDS011;58869;51.982;4.450;2022-09-09T06:21:04;4.03;;;3.75;;
70450;SDS011;58869;51.982;4.450;2022-09-09T06:23:32;4.18;;;3.87;;
70450;SDS011;58869;51.982;4.450;2022-09-09T06:26:16;4.00;;;3.74;;
70450;SDS011;58869;51.982;4.450;2022-09-09T06:28:47;3.93;;;3.66;;
70450;SDS011;58869;51.982;4.450;2022-09-09T06:31:15;4.44;;;4.08;;
70450;SDS011;58869;51.982;4.450;2022-09-09T06:33:51;3.81;;;3.63;;
70450;SDS011;58869;51.982;4.450;2022-09-09T06:36:22;4.69;;;4.26;;
70450;SDS011;58869;51.982;4.450;2022-09-09T06:38:49;4.38;;;3.96;;
70450;SDS011;58869;51.982;4.450;2022-09-09T06:41:18;4.06;;;3.83;;
70450;SDS011;58869;51.982;4.450;2022-09-09T06:43:45;4.47;;;4.13;;
70450;SDS011;58869;51.982;4.450;2022-09-09T06:46:13;4.35;;;4.01;;
70450;SDS011;58869;51.982;4.450;2022-09-09T06:48:43;4.65;;;4.52;;
70450;SDS011;58869;51.982;4.450;2022-09-09T06:51:10;4.48;;;4.48;;
70450;SDS011;58869;51.982;4.450;2022-09-09T06:53:38;4.59;;;4.59;;
70450;SDS011;58869;51.982;4.450;2022-09-09T06:56:19;4.19;;;4.19;;
70450;SDS011;58869;51.982;4.450;2022-09-09T06:58:50;4.09;;;4.09;;
70450;SDS011;58869;51.982;4.450;2022-09-09T07:01:18;4.41;;;4.41;;
70450;SDS011;58869;51.982;4.450;2022-09-09T07:03:45;4.45;;;4.45;;
70450;SDS011;58869;51.982;4.450;2022-09-09T07:06:14;4.65;;;4.65;;
70450;SDS011;58869;51.982;4.450;2022-09-09T07:08:47;4.35;;;4.35;;
70450;SDS011;58869;51.982;4.450;2022-09-09T07:11:14;4.33;;;4.33;;
70450;SDS011;58869;51.982;4.450;2022-09-09T07:13:39;4.19;;;4.19;;
70450;SDS011;58869;51.982;4.450;2022-09-09T07:16:05;4.38;;;4.38;;
70450;SDS011;58869;51.982;4.450;2022-09-09T07:18:32;4.40;;;4.40;;
70450;SDS011;58869;51.982;4.450;2022-09-09T07:20:58;4.65;;;4.65;;
70450;SDS011;58869;51.982;4.450;2022-09-09T07:23:24;4.83;;;4.83;;
70450;SDS011;58869;51.982;4.450;2022-09-09T07:25:51;4.58;;;4.58;;
70450;SDS011;58869;51.982;4.450;2022-09-09T07:28:19;4.59;;;4.59;;
70450;SDS011;58869;51.982;4.450;2022-09-09T07:30:55;4.67;;;4.67;;
70450;SDS011;58869;51.982;4.450;2022-09-09T07:33:22;5.00;;;5.00;;
70450;SDS011;58869;51.982;4.450;2022-09-09T07:35:49;5.16;;;5.16;;
70450;SDS011;58869;51.982;4.450;2022-09-09T07:38:15;5.15;;;5.15;;
70450;SDS011;58869;51.982;4.450;2022-09-09T07:40:41;4.96;;;4.96;;
70450;SDS011;58869;51.982;4.450;2022-09-09T07:43:07;5.06;;;5.06;;
70450;SDS011;58869;51.982;4.450;2022-09-09T07:45:33;5.08;;;5.08;;
70450;SDS011;58869;51.982;4.450;2022-09-09T07:48:00;4.91;;;4.91;;
70450;SDS011;58869;51.982;4.450;2022-09-09T07:50:26;4.75;;;4.75;;
70450;SDS011;58869;51.982;4.450;2022-09-09T07:52:52;4.39;;;4.39;;
70450;SDS011;58869;51.982;4.450;2022-09-09T07:55:21;4.52;;;4.52;;
70450;SDS011;58869;51.982;4.450;2022-09-09T07:57:50;4.20;;;4.20;;
70450;SDS011;58869;51.982;4.450;2022-09-09T08:00:16;4.29;;;4.29;;
70450;SDS011;58869;51.982;4.450;2022-09-09T08:02:44;4.07;;;4.07;;
70450;SDS011;58869;51.982;4.450;2022-09-09T08:05:11;4.09;;;4.09;;
70450;SDS011;58869;51.982;4.450;2022-09-09T08:07:38;4.18;;;4.18;;
70450;SDS011;58869;51.982;4.450;2022-09-09T08:10:04;4.10;;;4.10;;
70450;SDS011;58869;51.982;4.450;2022-09-09T08:12:31;4.13;;;4.13;;
70450;SDS011;58869;51.982;4.450;2022-09-09T08:14:57;4.14;;;4.14;;
70450;SDS011;58869;51.982;4.450;2022-09-09T08:17:22;3.88;;;3.88;;
70450;SDS011;58869;51.982;4.450;2022-09-09T08:19:48;4.09;;;4.09;;
70450;SDS011;58869;51.982;4.450;2022-09-09T08:22:13;3.82;;;3.82;;
70450;SDS011;58869;51.982;4.450;2022-09-09T08:24:39;3.78;;;3.78;;
70450;SDS011;58869;51.982;4.450;2022-09-09T08:27:04;3.86;;;3.86;;
70450;SDS011;58869;51.982;4.450;2022-09-09T08:29:30;4.00;;;4.00;;
70450;SDS011;58869;51.982;4.450;2022-09-09T08:31:56;4.03;;;4.03;;
70450;SDS011;58869;51.982;4.450;2022-09-09T08:34:23;3.83;;;3.83;;
70450;SDS011;58869;51.982;4.450;2022-09-09T08:36:51;4.02;;;4.02;;
70450;SDS011;58869;51.982;4.450;2022-09-09T08:39:17;3.76;;;3.76;;
70450;SDS011;58869;51.982;4.450;2022-09-09T08:50:08;4.30;;;4.30;;
70450;SDS011;58869;51.982;4.450;2022-09-09T08:55:52;4.21;;;4.21;;
70450;SDS011;58869;51.982;4.450;2022-09-09T08:58:33;4.36;;;4.36;;
70450;SDS011;58869;51.982;4.450;2022-09-09T09:03:43;4.09;;;4.09;;
70450;SDS011;58869;51.982;4.450;2022-09-09T09:09:16;4.72;;;4.72;;
70450;SDS011;58869;51.982;4.450;2022-09-09T09:11:55;3.95;;;3.95;;
70450;SDS011;58869;51.982;4.450;2022-09-09T09:14:26;4.27;;;4.22;;
70450;SDS011;58869;51.982;4.450;2022-09-09T09:16:56;4.32;;;4.29;;
70450;SDS011;58869;51.982;4.450;2022-09-09T09:19:26;4.11;;;4.11;;
70450;SDS011;58869;51.982;4.450;2022-09-09T09:22:06;4.28;;;4.28;;
70450;SDS011;58869;51.982;4.450;2022-09-09T09:24:50;4.06;;;4.06;;
70450;SDS011;58869;51.982;4.450;2022-09-09T09:30:10;3.79;;;3.61;;
70450;SDS011;58869;51.982;4.450;2022-09-09T09:32:40;3.93;;;3.75;;
70450;SDS011;58869;51.982;4.450;2022-09-09T09:35:14;4.15;;;4.00;;
70450;SDS011;58869;51.982;4.450;2022-09-09T09:37:40;4.05;;;3.89;;
70450;SDS011;58869;51.982;4.450;2022-09-09T09:40:11;3.49;;;3.49;;
70450;SDS011;58869;51.982;4.450;2022-09-09T09:42:52;3.74;;;3.74;;
70450;SDS011;58869;51.982;4.450;2022-09-09T09:45:32;4.38;;;4.38;;
70450;SDS011;58869;51.982;4.450;2022-09-09T09:48:12;4.20;;;4.20;;
70450;SDS011;58869;51.982;4.450;2022-09-09T09:53:19;4.55;;;4.55;;
70450;SDS011;58869;51.982;4.450;2022-09-09T09:55:57;4.55;;;4.55;;
70450;SDS011;58869;51.982;4.450;2022-09-09T09:58:25;4.08;;;4.08;;
70450;SDS011;58869;51.982;4.450;2022-09-09T10:00:57;4.12;;;4.12;;
70450;SDS011;58869;51.982;4.450;2022-09-09T10:03:26;4.58;;;4.58;;
70450;SDS011;58869;51.982;4.450;2022-09-09T10:05:54;4.92;;;4.92;;
70450;SDS011;58869;51.982;4.450;2022-09-09T10:08:22;4.50;;;4.50;;
70450;SDS011;58869;51.982;4.450;2022-09-09T10:10:54;4.56;;;4.56;;
70450;SDS011;58869;51.982;4.450;2022-09-09T10:13:43;4.43;;;4.43;;
70450;SDS011;58869;51.982;4.450;2022-09-09T10:19:22;4.36;;;4.36;;
70450;SDS011;58869;51.982;4.450;2022-09-09T10:35:30;3.89;;;3.89;;
70450;SDS011;58869;51.982;4.450;2022-09-09T10:38:05;3.52;;;3.52;;
70450;SDS011;58869;51.982;4.450;2022-09-09T10:49:02;3.62;;;3.62;;
70450;SDS011;58869;51.982;4.450;2022-09-09T10:57:21;3.39;;;3.39;;
70450;SDS011;58869;51.982;4.450;2022-09-09T10:59:54;3.58;;;3.58;;
70450;SDS011;58869;51.982;4.450;2022-09-09T11:02:29;3.30;;;3.30;;
70450;SDS011;58869;51.982;4.450;2022-09-09T11:05:01;3.48;;;3.48;;
70450;SDS011;58869;51.982;4.450;2022-09-09T11:07:38;3.52;;;3.52;;
70450;SDS011;58869;51.982;4.450;2022-09-09T11:10:17;3.50;;;3.50;;
70450;SDS011;58869;51.982;4.450;2022-09-09T11:12:45;3.65;;;3.65;;
70450;SDS011;58869;51.982;4.450;2022-09-09T11:15:15;3.82;;;3.82;;
70450;SDS011;58869;51.982;4.450;2022-09-09T11:17:49;3.72;;;3.72;;
70450;SDS011;58869;51.982;4.450;2022-09-09T11:20:21;3.44;;;3.44;;
70450;SDS011;58869;51.982;4.450;2022-09-09T11:22:59;3.63;;;3.63;;
70450;SDS011;58869;51.982;4.450;2022-09-09T11:25:53;3.39;;;3.39;;
70450;SDS011;58869;51.982;4.450;2022-09-09T11:28:28;3.62;;;3.62;;
70450;SDS011;58869;51.982;4.450;2022-09-09T11:41:51;3.17;;;3.17;;
70450;SDS011;58869;51.982;4.450;2022-09-09T11:44:28;3.33;;;3.33;;
70450;SDS011;58869;51.982;4.450;2022-09-09T11:46:55;3.28;;;3.28;;
70450;SDS011;58869;51.982;4.450;2022-09-09T11:49:28;3.71;;;3.71;;
70450;SDS011;58869;51.982;4.450;2022-09-09T11:51:56;3.99;;;3.99;;
70450;SDS011;58869;51.982;4.450;2022-09-09T11:56:57;4.38;;;4.38;;
70450;SDS011;58869;51.982;4.450;2022-09-09T11:59:24;4.12;;;4.12;;
70450;SDS011;58869;51.982;4.450;2022-09-09T12:04:49;4.52;;;4.52;;
70450;SDS011;58869;51.982;4.450;2022-09-09T12:09:56;4.48;;;4.48;;
70450;SDS011;58869;51.982;4.450;2022-09-09T12:12:28;4.13;;;4.13;;
70450;SDS011;58869;51.982;4.450;2022-09-09T12:15:02;3.98;;;3.98;;
70450;SDS011;58869;51.982;4.450;2022-09-09T12:17:43;3.87;;;3.87;;
70450;SDS011;58869;51.982;4.450;2022-09-09T12:20:18;3.36;;;3.36;;
70450;SDS011;58869;51.982;4.450;2022-09-09T12:28:17;3.78;;;3.78;;
70450;SDS011;58869;51.982;4.450;2022-09-09T12:31:46;3.89;;;3.89;;
70450;SDS011;58869;51.982;4.450;2022-09-09T12:33:47;4.05;;;4.05;;
70450;SDS011;58869;51.982;4.450;2022-09-09T12:36:17;3.77;;;3.77;;
70450;SDS011;58869;51.982;4.450;2022-09-09T12:38:46;3.89;;;3.89;;
70450;SDS011;58869;51.982;4.450;2022-09-09T12:41:22;4.00;;;4.00;;
70450;SDS011;58869;51.982;4.450;2022-09-09T12:43:50;4.21;;;4.21;;
70450;SDS011;58869;51.982;4.450;2022-09-09T12:46:31;4.28;;;4.28;;
70450;SDS011;58869;51.982;4.450;2022-09-09T12:49:28;4.56;;;4.56;;
70450;SDS011;58869;51.982;4.450;2022-09-09T12:52:06;4.02;;;4.02;;
70450;SDS011;58869;51.982;4.450;2022-09-09T12:54:42;4.07;;;4.07;;
70450;SDS011;58869;51.982;4.450;2022-09-09T12:57:15;3.93;;;3.93;;
70450;SDS011;58869;51.982;4.450;2022-09-09T12:59:41;3.57;;;3.57;;
70450;SDS011;58869;51.982;4.450;2022-09-09T13:02:21;3.42;;;3.42;;
70450;SDS011;58869;51.982;4.450;2022-09-09T13:04:48;3.30;;;3.30;;
70450;SDS011;58869;51.982;4.450;2022-09-09T13:07:15;2.75;;;2.75;;
70450;SDS011;58869;51.982;4.450;2022-09-09T13:09:42;2.44;;;2.44;;
70450;SDS011;58869;51.982;4.450;2022-09-09T13:12:18;2.24;;;2.24;;
70450;SDS011;58869;51.982;4.450;2022-09-09T13:14:48;2.09;;;2.09;;
70450;SDS011;58869;51.982;4.450;2022-09-09T13:17:23;1.86;;;1.86;;
70450;SDS011;58869;51.982;4.450;2022-09-09T13:19:52;2.23;;;2.23;;
70450;SDS011;58869;51.982;4.450;2022-09-09T13:22:39;2.46;;;2.46;;
70450;SDS011;58869;51.982;4.450;2022-09-09T13:25:13;2.18;;;2.18;;
70450;SDS011;58869;51.982;4.450;2022-09-09T13:28:18;2.10;;;2.10;;
70450;SDS011;58869;51.982;4.450;2022-09-09T13:30:54;2.22;;;2.22;;
70450;SDS011;58869;51.982;4.450;2022-09-09T13:33:35;1.91;;;1.91;;
70450;SDS011;58869;51.982;4.450;2022-09-09T13:36:03;1.97;;;1.97;;
70450;SDS011;58869;51.982;4.450;2022-09-09T13:41:18;2.20;;;2.20;;
70450;SDS011;58869;51.982;4.450;2022-09-09T13:44:01;2.17;;;2.17;;
70450;SDS011;58869;51.982;4.450;2022-09-09T13:54:05;1.92;;;1.92;;
70450;SDS011;58869;51.982;4.450;2022-09-09T13:56:32;2.15;;;2.15;;
70450;SDS011;58869;51.982;4.450;2022-09-09T13:58:58;2.21;;;2.21;;
70450;SDS011;58869;51.982;4.450;2022-09-09T14:01:24;2.28;;;2.28;;
70450;SDS011;58869;51.982;4.450;2022-09-09T14:03:49;2.03;;;2.03;;
70450;SDS011;58869;51.982;4.450;2022-09-09T14:06:16;1.64;;;1.64;;
70450;SDS011;58869;51.982;4.450;2022-09-09T14:08:44;1.54;;;1.54;;
70450;SDS011;58869;51.982;4.450;2022-09-09T14:11:11;1.51;;;1.51;;
70450;SDS011;58869;51.982;4.450;2022-09-09T14:13:38;1.48;;;1.48;;
70450;SDS011;58869;51.982;4.450;2022-09-09T14:16:04;1.70;;;1.59;;
70450;SDS011;58869;51.982;4.450;2022-09-09T14:18:29;1.42;;;1.37;;
70450;SDS011;58869;51.982;4.450;2022-09-09T14:20:55;1.92;;;1.76;;
70450;SDS011;58869;51.982;4.450;2022-09-09T14:23:22;2.08;;;1.85;;
70450;SDS011;58869;51.982;4.450;2022-09-09T14:25:47;2.20;;;1.89;;
70450;SDS011;58869;51.982;4.450;2022-09-09T14:28:14;2.04;;;1.76;;
70450;SDS011;58869;51.982;4.450;2022-09-09T14:30:40;2.35;;;2.03;;
70450;SDS011;58869;51.982;4.450;2022-09-09T14:33:07;2.52;;;2.17;;
70450;SDS011;58869;51.982;4.450;2022-09-09T14:35:33;2.66;;;2.23;;
70450;SDS011;58869;51.982;4.450;2022-09-09T14:37:59;2.35;;;1.95;;
70450;SDS011;58869;51.982;4.450;2022-09-09T14:40:26;2.32;;;1.94;;
70450;SDS011;58869;51.982;4.450;2022-09-09T14:42:52;2.59;;;2.18;;
70450;SDS011;58869;51.982;4.450;2022-09-09T14:45:18;2.44;;;2.05;;
70450;SDS011;58869;51.982;4.450;2022-09-09T14:47:44;2.49;;;2.11;;
70450;SDS011;58869;51.982;4.450;2022-09-09T14:50:10;2.52;;;2.16;;
70450;SDS011;58869;51.982;4.450;2022-09-09T14:52:37;2.34;;;2.00;;
70450;SDS011;58869;51.982;4.450;2022-09-09T14:55:03;2.20;;;1.87;;
70450;SDS011;58869;51.982;4.450;2022-09-09T14:57:29;2.18;;;1.88;;
70450;SDS011;58869;51.982;4.450;2022-09-09T14:59:55;2.26;;;1.95;;
70450;SDS011;58869;51.982;4.450;2022-09-09T15:02:21;2.35;;;2.00;;
70450;SDS011;58869;51.982;4.450;2022-09-09T15:04:47;2.36;;;1.98;;
70450;SDS011;58869;51.982;4.450;2022-09-09T15:07:15;2.65;;;2.18;;
70450;SDS011;58869;51.982;4.450;2022-09-09T15:09:41;2.74;;;2.24;;
70450;SDS011;58869;51.982;4.450;2022-09-09T15:12:07;2.49;;;2.03;;
70450;SDS011;58869;51.982;4.450;2022-09-09T15:14:32;2.64;;;2.20;;
70450;SDS011;58869;51.982;4.450;2022-09-09T15:16:58;2.25;;;1.94;;
70450;SDS011;58869;51.982;4.450;2022-09-09T15:19:23;2.13;;;1.83;;
70450;SDS011;58869;51.982;4.450;2022-09-09T15:21:49;2.25;;;1.96;;
70450;SDS011;58869;51.982;4.450;2022-09-09T15:24:14;2.20;;;1.92;;
70450;SDS011;58869;51.982;4.450;2022-09-09T15:26:41;2.13;;;1.90;;
70450;SDS011;58869;51.982;4.450;2022-09-09T15:29:06;1.92;;;1.91;;
70450;SDS011;58869;51.982;4.450;2022-09-09T15:31:33;1.95;;;1.90;;
70450;SDS011;58869;51.982;4.450;2022-09-09T15:34:00;2.60;;;2.32;;
70450;SDS011;58869;51.982;4.450;2022-09-09T15:36:34;2.54;;;2.31;;
70450;SDS011;58869;51.982;4.450;2022-09-09T15:39:04;3.20;;;3.10;;
70450;SDS011;58869;51.982;4.450;2022-09-09T15:41:32;3.23;;;3.23;;
70450;SDS011;58869;51.982;4.450;2022-09-09T15:43:58;3.79;;;3.79;;
70450;SDS011;58869;51.982;4.450;2022-09-09T15:46:38;4.52;;;4.52;;
70450;SDS011;58869;51.982;4.450;2022-09-09T15:49:07;4.36;;;4.36;;
70450;SDS011;58869;51.982;4.450;2022-09-09T15:51:38;4.54;;;4.54;;
70450;SDS011;58869;51.982;4.450;2022-09-09T15:54:05;4.83;;;4.83;;
70450;SDS011;58869;51.982;4.450;2022-09-09T15:56:31;5.17;;;5.17;;
70450;SDS011;58869;51.982;4.450;2022-09-09T15:58:58;5.41;;;5.41;;
70450;SDS011;58869;51.982;4.450;2022-09-09T16:01:24;6.13;;;6.13;;
70450;SDS011;58869;51.982;4.450;2022-09-09T16:03:51;6.50;;;6.50;;
70450;SDS011;58869;51.982;4.450;2022-09-09T16:06:19;6.28;;;6.28;;
70450;SDS011;58869;51.982;4.450;2022-09-09T16:08:47;6.32;;;6.32;;
70450;SDS011;58869;51.982;4.450;2022-09-09T16:11:21;5.41;;;5.41;;
70450;SDS011;58869;51.982;4.450;2022-09-09T16:13:49;5.71;;;5.71;;
70450;SDS011;58869;51.982;4.450;2022-09-09T16:16:17;5.94;;;5.94;;
70450;SDS011;58869;51.982;4.450;2022-09-09T16:18:48;5.75;;;5.75;;
70450;SDS011;58869;51.982;4.450;2022-09-09T16:23:43;6.08;;;6.08;;
70450;SDS011;58869;51.982;4.450;2022-09-09T16:26:13;6.12;;;6.12;;
70450;SDS011;58869;51.982;4.450;2022-09-09T16:28:39;5.91;;;5.91;;
70450;SDS011;58869;51.982;4.450;2022-09-09T16:31:07;5.70;;;5.70;;
70450;SDS011;58869;51.982;4.450;2022-09-09T16:33:35;5.57;;;5.57;;
70450;SDS011;58869;51.982;4.450;2022-09-09T16:36:11;5.45;;;5.45;;
70450;SDS011;58869;51.982;4.450;2022-09-09T16:38:39;4.83;;;4.83;;
70450;SDS011;58869;51.982;4.450;2022-09-09T16:41:05;3.95;;;3.95;;
70450;SDS011;58869;51.982;4.450;2022-09-09T16:43:33;3.74;;;3.74;;
70450;SDS011;58869;51.982;4.450;2022-09-09T16:46:00;3.39;;;3.39;;
70450;SDS011;58869;51.982;4.450;2022-09-09T16:48:26;3.40;;;3.40;;
70450;SDS011;58869;51.982;4.450;2022-09-09T16:51:04;3.43;;;3.43;;
70450;SDS011;58869;51.982;4.450;2022-09-09T16:53:31;3.63;;;3.63;;
70450;SDS011;58869;51.982;4.450;2022-09-09T16:55:57;3.50;;;3.50;;
70450;SDS011;58869;51.982;4.450;2022-09-09T16:58:22;3.86;;;3.86;;
70450;SDS011;58869;51.982;4.450;2022-09-09T17:00:48;4.16;;;4.16;;